Time;durP1;ratioP1;P1;durP2;ratioP2;P2;SDS_P1;SDS_P2;PMS_P1;PMS_P2;Temp;Humidity;BMP_temperature;BMP_pressure;BME280_temperature;BME280_humidity;BME280_pressure;Samples;Min_cycle;Max_cycle;Signal;HPM_P1;HPM_P2
2023/06/22 00:00:51;;;;;;;7.55;4.18;;;;;;;19.23;100.00;101721.44;5241939;28;20375;-68
2023/06/22 00:03:24;;;;;;;9.55;4.63;;;;;;;19.28;100.00;101715.59;5233230;28;20029;-68
2023/06/22 00:05:56;;;;;;;10.95;4.50;;;;;;;19.11;100.00;101703.72;5223063;28;21453;-67
2023/06/22 00:08:28;;;;;;;6.53;4.47;;;;;;;19.00;100.00;101705.66;5226208;28;20599;-67
2023/06/22 00:10:59;;;;;;;9.38;5.00;;;;;;;19.09;100.00;101713.84;5231194;28;20056;-67
2023/06/22 00:13:30;;;;;;;8.23;5.03;;;;;;;18.93;100.00;101723.50;5222338;28;20025;-67
2023/06/22 00:16:02;;;;;;;7.10;4.68;;;;;;;18.96;100.00;101712.34;5225836;28;20036;-68
2023/06/22 00:18:33;;;;;;;9.93;5.57;;;;;;;18.94;100.00;101706.25;5231705;28;20502;-68
2023/06/22 00:21:06;;;;;;;8.30;5.13;;;;;;;18.95;100.00;101713.38;5237033;28;20689;-67
2023/06/22 00:23:37;;;;;;;8.52;5.13;;;;;;;18.83;100.00;101711.88;5232069;28;20053;-67
2023/06/22 00:26:09;;;;;;;7.30;4.82;;;;;;;18.80;100.00;101720.28;5228130;28;20486;-68
2023/06/22 00:28:40;;;;;;;8.48;5.50;;;;;;;18.72;100.00;101709.34;5226242;28;20390;-67
2023/06/22 00:31:11;;;;;;;6.57;5.00;;;;;;;18.81;100.00;101711.16;5223965;28;20041;-67
2023/06/22 00:33:43;;;;;;;6.68;5.03;;;;;;;18.64;100.00;101709.22;5224226;28;20994;-68
2023/06/22 00:36:15;;;;;;;7.30;5.35;;;;;;;18.73;100.00;101714.56;5225299;28;20025;-67
2023/06/22 00:38:49;;;;;;;9.13;5.43;;;;;;;18.65;100.00;101705.53;5237006;28;20039;-67
2023/06/22 00:41:20;;;;;;;7.70;5.13;;;;;;;18.61;100.00;101704.97;5228994;28;20495;-67
2023/06/22 00:43:51;;;;;;;6.97;5.40;;;;;;;18.57;100.00;101698.16;5228393;28;20280;-67
2023/06/22 00:46:24;;;;;;;9.18;5.70;;;;;;;18.60;100.00;101705.94;5219578;28;20129;-67
2023/06/22 00:48:57;;;;;;;9.20;5.78;;;;;;;18.46;100.00;101704.59;5229076;28;20472;-68
2023/06/22 00:51:28;;;;;;;8.82;5.90;;;;;;;18.55;100.00;101701.00;5237525;28;20033;-67
2023/06/22 00:54:00;;;;;;;8.35;6.18;;;;;;;18.47;100.00;101700.06;5223505;28;20029;-68
2023/06/22 00:56:32;;;;;;;10.52;7.38;;;;;;;18.45;100.00;101694.81;5233099;28;20722;-67
2023/06/22 00:59:03;;;;;;;9.70;7.85;;;;;;;18.52;100.00;101695.88;5224047;28;20134;-68
2023/06/22 01:01:41;;;;;;;9.13;7.78;;;;;;;18.45;100.00;101694.81;5233129;28;20029;-67
2023/06/22 01:04:13;;;;;;;8.70;7.47;;;;;;;18.42;100.00;101689.69;5230965;28;20033;-67
2023/06/22 01:06:54;;;;;;;10.50;8.15;;;;;;;18.53;100.00;101692.19;5224649;28;20053;-67
2023/06/22 01:09:33;;;;;;;10.27;8.30;;;;;;;18.38;100.00;101691.81;5224356;28;20037;-67
2023/06/22 01:12:08;;;;;;;11.10;8.38;;;;;;;18.47;100.00;101697.34;5230358;28;20092;-68
2023/06/22 01:15:02;;;;;;;11.02;8.70;;;;;;;18.37;100.00;101694.66;5230633;28;20028;-67
2023/06/22 01:17:35;;;;;;;9.60;8.05;;;;;;;18.40;100.00;101691.69;5231608;28;20029;-68
2023/06/22 01:20:09;;;;;;;9.80;8.77;;;;;;;18.38;100.00;101697.22;5233473;28;20524;-68
2023/06/22 01:23:00;;;;;;;11.98;9.55;;;;;;;18.42;100.00;101695.94;5228772;28;20021;-68
2023/06/22 01:26:14;;;;;;;10.38;9.25;;;;;;;18.39;100.00;101701.66;5227092;28;20045;-67
2023/06/22 01:28:52;;;;;;;10.30;9.10;;;;;;;18.28;100.00;101704.53;5227270;28;20192;-67
2023/06/22 01:31:35;;;;;;;11.48;8.77;;;;;;;18.33;100.00;101702.25;5232765;28;20319;-67
2023/06/22 01:34:15;;;;;;;10.73;9.18;;;;;;;18.33;100.00;101704.06;5236109;28;20041;-68
2023/06/22 01:36:47;;;;;;;12.63;8.48;;;;;;;18.35;100.00;101692.13;5221401;28;20583;-67
2023/06/22 01:39:20;;;;;;;10.93;9.30;;;;;;;18.38;100.00;101685.56;5224736;28;20021;-67
2023/06/22 01:41:53;;;;;;;10.15;9.05;;;;;;;18.53;100.00;101694.06;5226383;28;20034;-67
2023/06/22 01:44:26;;;;;;;10.00;8.90;;;;;;;18.45;100.00;101684.00;5232847;28;20112;-67
2023/06/22 01:46:58;;;;;;;14.77;9.95;;;;;;;18.33;100.00;101687.84;5233972;28;20056;-68
2023/06/22 01:49:30;;;;;;;10.40;8.93;;;;;;;18.32;100.00;101688.88;5236021;28;20379;-67
2023/06/22 01:52:01;;;;;;;11.73;9.95;;;;;;;18.31;100.00;101693.41;5233733;28;20128;-67
2023/06/22 01:54:33;;;;;;;10.98;9.77;;;;;;;18.44;100.00;101690.38;5250317;28;20283;-67
2023/06/22 01:57:05;;;;;;;10.10;9.07;;;;;;;18.30;100.00;101691.72;5227708;28;20458;-67
2023/06/22 01:59:48;;;;;;;11.95;9.45;;;;;;;18.25;100.00;101694.00;5227420;28;20032;-68
2023/06/22 02:02:26;;;;;;;10.88;9.32;;;;;;;18.26;100.00;101695.72;5233031;28;20057;-67
2023/06/22 02:05:03;;;;;;;10.77;9.60;;;;;;;18.28;100.00;101682.06;5233853;28;20029;-66
2023/06/22 02:07:41;;;;;;;11.60;10.23;;;;;;;18.39;100.00;101685.44;5228881;28;20033;-67
2023/06/22 02:10:16;;;;;;;13.05;10.30;;;;;;;18.32;100.00;101687.00;5229003;28;20033;-67
2023/06/22 02:12:48;;;;;;;12.60;9.95;;;;;;;18.42;100.00;101690.53;5226273;28;20057;-67
2023/06/22 02:15:21;;;;;;;13.50;10.68;;;;;;;18.29;100.00;101690.00;5231981;28;20087;-67
2023/06/22 02:17:52;;;;;;;12.65;10.55;;;;;;;18.26;100.00;101684.06;5236379;28;20033;-67
2023/06/22 02:20:24;;;;;;;13.18;11.63;;;;;;;18.33;100.00;101695.97;5223612;28;20044;-67
2023/06/22 02:22:56;;;;;;;13.60;11.40;;;;;;;18.44;100.00;101693.09;5229656;28;20784;-67
2023/06/22 02:25:27;;;;;;;14.50;11.95;;;;;;;18.39;100.00;101684.59;5230814;28;20030;-66
2023/06/22 02:27:59;;;;;;;14.32;11.75;;;;;;;18.28;100.00;101677.50;5233500;28;20395;-67
2023/06/22 02:30:32;;;;;;;13.50;11.40;;;;;;;18.37;100.00;101675.75;5225196;28;20025;-67
2023/06/22 02:33:03;;;;;;;15.25;11.57;;;;;;;18.29;100.00;101670.25;5231179;28;20120;-67
2023/06/22 02:35:35;;;;;;;14.02;11.45;;;;;;;18.25;100.00;101667.00;5223972;28;20037;-67
2023/06/22 02:38:08;;;;;;;15.88;11.93;;;;;;;18.25;100.00;101661.59;5232993;28;20036;-67
2023/06/22 02:40:39;;;;;;;13.52;11.93;;;;;;;18.22;100.00;101660.03;5232721;28;20109;-68
2023/06/22 02:43:10;;;;;;;15.52;12.32;;;;;;;18.40;100.00;101668.19;5232753;28;20403;-67
2023/06/22 02:45:42;;;;;;;14.13;11.85;;;;;;;18.22;100.00;101665.44;5227502;28;20123;-67
2023/06/22 02:48:13;;;;;;;17.60;12.00;;;;;;;18.31;100.00;101665.53;5227291;28;20518;-68
2023/06/22 02:50:45;;;;;;;15.95;12.25;;;;;;;18.17;100.00;101661.47;5234735;28;20423;-67
2023/06/22 02:53:16;;;;;;;13.95;12.25;;;;;;;18.13;100.00;101658.22;5215883;28;20527;-67
2023/06/22 02:55:47;;;;;;;15.23;13.27;;;;;;;18.11;100.00;101654.81;5220311;28;20028;-67
2023/06/22 02:58:19;;;;;;;14.30;12.70;;;;;;;18.06;100.00;101658.94;5219241;28;20037;-67
2023/06/22 03:00:53;;;;;;;13.02;11.68;;;;;;;18.04;100.00;101653.69;5220726;28;20039;-68
2023/06/22 03:03:26;;;;;;;14.57;12.35;;;;;;;18.02;100.00;101653.84;5222679;28;20506;-67
2023/06/22 03:05:57;;;;;;;14.48;12.98;;;;;;;18.08;100.00;101644.28;5232447;28;20135;-67
2023/06/22 03:08:29;;;;;;;16.25;12.75;;;;;;;18.01;100.00;101635.09;5224986;28;20028;-67
2023/06/22 03:11:00;;;;;;;13.68;12.27;;;;;;;18.01;100.00;101635.09;5227863;28;20025;-67
2023/06/22 03:13:31;;;;;;;14.88;12.93;;;;;;;18.00;100.00;101645.03;5215236;28;20030;-67
2023/06/22 03:16:03;;;;;;;17.23;12.93;;;;;;;18.04;100.00;101637.47;5232546;28;20061;-67
2023/06/22 03:18:34;;;;;;;14.10;12.60;;;;;;;17.92;100.00;101627.88;5224418;28;20756;-67
2023/06/22 03:21:06;;;;;;;15.65;13.95;;;;;;;17.96;100.00;101634.69;5229794;28;20041;-67
2023/06/22 03:23:37;;;;;;;14.68;13.18;;;;;;;17.96;100.00;101626.56;5233744;28;20028;-67
2023/06/22 03:26:10;;;;;;;15.15;13.55;;;;;;;17.95;100.00;101632.97;5230860;28;20033;-67
2023/06/22 03:28:41;;;;;;;17.23;13.50;;;;;;;17.98;100.00;101627.28;5218539;28;20037;-67
2023/06/22 03:31:12;;;;;;;15.82;13.70;;;;;;;17.91;100.00;101618.06;5230654;28;20387;-67
2023/06/22 03:33:44;;;;;;;14.25;12.80;;;;;;;17.92;100.00;101631.41;5235107;28;20107;-67
2023/06/22 03:36:19;;;;;;;15.80;13.82;;;;;;;17.85;100.00;101630.28;5227244;28;20657;-67
2023/06/22 03:38:51;;;;;;;17.70;13.38;;;;;;;17.85;100.00;101626.75;5227656;28;20036;-67
2023/06/22 03:41:22;;;;;;;16.05;13.55;;;;;;;17.81;100.00;101626.16;5234893;28;20048;-67
2023/06/22 03:43:54;;;;;;;17.33;14.70;;;;;;;17.73;100.00;101626.88;5232832;28;20032;-68
2023/06/22 03:46:25;;;;;;;17.38;14.43;;;;;;;17.74;100.00;101622.34;5238182;28;20021;-67
2023/06/22 03:48:56;;;;;;;16.30;14.20;;;;;;;17.68;100.00;101618.38;5242957;28;20418;-67
2023/06/22 03:51:28;;;;;;;16.60;14.50;;;;;;;17.64;100.00;101625.03;5236999;28;20031;-67
2023/06/22 03:54:00;;;;;;;18.45;13.90;;;;;;;17.70;100.00;101627.19;5217771;28;20034;-67
2023/06/22 03:56:31;;;;;;;19.35;15.32;;;;;;;17.70;100.00;101616.38;5224752;28;20025;-67
2023/06/22 03:59:02;;;;;;;16.35;14.63;;;;;;;17.63;100.00;101612.56;5230667;28;20037;-67
2023/06/22 04:01:34;;;;;;;17.80;14.73;;;;;;;17.62;100.00;101616.25;5231222;28;20048;-67
2023/06/22 04:04:05;;;;;;;17.70;14.38;;;;;;;17.60;100.00;101613.72;5227415;28;20061;-67
2023/06/22 04:06:37;;;;;;;16.08;13.00;;;;;;;17.69;100.00;101620.06;5223933;28;20495;-67
2023/06/22 04:09:08;;;;;;;16.85;14.80;;;;;;;17.78;100.00;101619.19;5240594;28;20386;-68
2023/06/22 04:11:40;;;;;;;18.00;14.40;;;;;;;17.72;100.00;101622.50;5232191;28;20074;-67
2023/06/22 04:14:11;;;;;;;16.65;14.85;;;;;;;17.69;100.00;101621.94;5232245;28;20480;-67
2023/06/22 04:16:43;;;;;;;17.02;14.07;;;;;;;17.74;100.00;101619.66;5224278;28;20392;-67
2023/06/22 04:19:17;;;;;;;17.20;15.35;;;;;;;17.77;100.00;101613.94;5228303;28;20029;-67
2023/06/22 04:21:49;;;;;;;18.45;13.85;;;;;;;17.81;100.00;101618.06;5218932;28;20025;-68
2023/06/22 04:24:20;;;;;;;17.13;14.40;;;;;;;17.83;100.00;101625.03;5231237;28;20400;-67
2023/06/22 04:26:54;;;;;;;15.40;13.80;;;;;;;17.82;100.00;101615.22;5217066;28;20029;-67
2023/06/22 04:29:28;;;;;;;15.65;13.82;;;;;;;17.83;100.00;101619.63;5230478;28;20391;-67
2023/06/22 04:32:05;;;;;;;19.33;14.77;;;;;;;17.83;100.00;101619.63;5234564;28;20108;-67
2023/06/22 04:34:37;;;;;;;17.20;14.40;;;;;;;17.88;100.00;101615.66;5224627;28;20069;-68
2023/06/22 04:37:09;;;;;;;15.88;14.00;;;;;;;17.96;100.00;101619.31;5228379;28;20028;-68
2023/06/22 04:39:42;;;;;;;16.60;14.70;;;;;;;18.05;100.00;101624.84;5227897;28;20044;-68
2023/06/22 04:42:13;;;;;;;16.65;14.90;;;;;;;18.11;100.00;101629.66;5225347;28;20395;-67
2023/06/22 04:44:44;;;;;;;16.00;14.30;;;;;;;18.12;100.00;101620.53;5233611;28;20032;-68
2023/06/22 04:47:16;;;;;;;17.50;15.68;;;;;;;18.17;100.00;101627.22;5235648;28;20033;-67
2023/06/22 04:49:47;;;;;;;18.83;15.00;;;;;;;18.22;100.00;101624.91;5238913;28;20137;-68
2023/06/22 04:52:20;;;;;;;15.98;14.20;;;;;;;18.27;100.00;101637.97;5223753;28;20038;-68
2023/06/22 04:54:55;;;;;;;17.95;14.75;;;;;;;18.33;100.00;101629.28;5226706;28;20029;-70
2023/06/22 04:57:31;;;;;;;17.45;15.60;;;;;;;18.41;100.00;101618.59;5226291;28;20026;-68
2023/06/22 05:00:12;;;;;;;17.73;14.25;;;;;;;18.51;100.00;101631.19;5232540;28;20036;-67
2023/06/22 05:02:45;;;;;;;17.00;14.70;;;;;;;18.52;100.00;101630.19;5240394;28;20024;-67
2023/06/22 05:05:17;;;;;;;17.85;14.13;;;;;;;18.55;100.00;101627.19;5239168;28;20064;-68
2023/06/22 05:07:52;;;;;;;18.15;14.27;;;;;;;18.56;100.00;101620.78;5234869;28;20474;-69
2023/06/22 05:10:24;;;;;;;17.30;14.52;;;;;;;18.64;100.00;101617.31;5236819;28;20159;-67
2023/06/22 05:12:56;;;;;;;18.60;14.95;;;;;;;18.67;100.00;101617.03;5225590;28;20450;-67
2023/06/22 05:15:30;;;;;;;18.35;14.52;;;;;;;18.73;100.00;101614.53;5229957;28;20133;-67
2023/06/22 05:18:05;;;;;;;19.00;15.00;;;;;;;18.75;100.00;101623.34;5236197;28;20025;-68
2023/06/22 05:20:36;;;;;;;17.13;14.95;;;;;;;18.79;100.00;101616.66;5241614;28;20036;-67
2023/06/22 05:23:11;;;;;;;18.90;15.95;;;;;;;18.91;100.00;101620.03;5240792;28;20455;-68
2023/06/22 05:25:42;;;;;;;20.48;15.55;;;;;;;18.97;100.00;101619.41;5236542;28;20026;-68
2023/06/22 05:28:14;;;;;;;18.25;16.25;;;;;;;19.00;100.00;101613.69;5227064;28;20083;-68
2023/06/22 05:30:45;;;;;;;19.55;17.27;;;;;;;19.07;100.00;101616.63;5232015;28;20024;-67
2023/06/22 05:33:16;;;;;;;20.55;16.77;;;;;;;19.14;100.00;101614.16;5230183;28;20057;-67
2023/06/22 05:35:48;;;;;;;19.85;16.85;;;;;;;19.19;100.00;101609.13;5228686;28;20191;-67
2023/06/22 05:38:19;;;;;;;20.08;16.95;;;;;;;19.22;100.00;101610.69;5242293;28;20399;-67
2023/06/22 05:40:51;;;;;;;22.67;18.75;;;;;;;19.23;100.00;101607.81;5236257;28;20033;-67
2023/06/22 05:43:22;;;;;;;24.25;18.13;;;;;;;19.28;100.00;101604.66;5242162;28;20034;-67
2023/06/22 05:45:54;;;;;;;21.70;18.17;;;;;;;19.27;100.00;101597.53;5232652;28;20064;-67
2023/06/22 05:48:25;;;;;;;20.75;18.65;;;;;;;19.33;100.00;101611.28;5235852;28;20034;-68
2023/06/22 05:50:57;;;;;;;20.40;18.20;;;;;;;19.32;100.00;101617.69;5226747;28;20550;-68
2023/06/22 05:53:29;;;;;;;21.25;18.17;;;;;;;19.35;100.00;101613.84;5235979;28;20402;-67
2023/06/22 05:56:00;;;;;;;21.15;19.02;;;;;;;19.40;100.00;101617.75;5247704;28;20045;-67
2023/06/22 05:58:31;;;;;;;20.40;18.27;;;;;;;19.42;100.00;101612.19;5240721;28;20098;-67
2023/06/22 06:01:03;;;;;;;21.80;18.55;;;;;;;19.45;100.00;101616.47;5228828;28;20026;-67
2023/06/22 06:03:40;;;;;;;21.65;19.13;;;;;;;19.54;100.00;101607.38;5223674;28;20972;-68
2023/06/22 06:06:12;;;;;;;22.27;18.45;;;;;;;19.57;100.00;101612.47;5229356;28;20041;-67
2023/06/22 06:08:43;;;;;;;21.25;18.27;;;;;;;19.67;100.00;101610.53;5236138;28;20404;-67
2023/06/22 06:11:15;;;;;;;22.45;19.05;;;;;;;19.70;100.00;101614.78;5236892;28;20484;-67
2023/06/22 06:13:46;;;;;;;20.73;18.33;;;;;;;19.80;100.00;101604.72;5245982;28;20112;-67
2023/06/22 06:16:17;;;;;;;21.73;19.33;;;;;;;19.85;100.00;101594.28;5241130;28;20017;-68
2023/06/22 06:18:50;;;;;;;19.95;17.95;;;;;;;19.92;100.00;101587.22;5224170;28;20039;-69
2023/06/22 06:21:22;;;;;;;21.95;19.65;;;;;;;20.01;100.00;101593.50;5228878;28;20109;-69
2023/06/22 06:23:53;;;;;;;23.92;20.27;;;;;;;20.04;100.00;101595.91;5237537;28;20471;-68
2023/06/22 06:26:32;;;;;;;23.10;20.30;;;;;;;20.10;100.00;101600.66;5231836;28;20372;-68
2023/06/22 06:29:03;;;;;;;23.52;20.40;;;;;;;20.17;100.00;101607.16;5227060;28;20771;-69
2023/06/22 06:31:36;;;;;;;22.25;19.92;;;;;;;20.22;100.00;101601.22;5230793;28;20295;-68
2023/06/22 06:34:07;;;;;;;21.88;18.77;;;;;;;20.34;100.00;101601.78;5218535;28;20065;-68
2023/06/22 06:36:38;;;;;;;21.35;19.13;;;;;;;20.32;100.00;101604.66;5217415;28;20026;-69
2023/06/22 06:39:10;;;;;;;22.05;17.85;;;;;;;20.39;100.00;101599.44;5228708;28;20863;-68
2023/06/22 06:41:41;;;;;;;19.90;17.83;;;;;;;20.44;100.00;101604.38;5226435;28;20310;-68
2023/06/22 06:44:13;;;;;;;20.48;17.77;;;;;;;20.50;100.00;101601.00;5225242;28;20040;-68
2023/06/22 06:46:44;;;;;;;19.67;17.42;;;;;;;20.53;100.00;101604.22;5229478;28;20060;-68
2023/06/22 06:49:16;;;;;;;21.33;18.02;;;;;;;20.59;100.00;101612.72;5228162;28;20029;-68
2023/06/22 06:51:47;;;;;;;20.45;18.27;;;;;;;20.70;100.00;101612.47;5221851;28;20375;-68
2023/06/22 06:54:20;;;;;;;19.20;17.15;;;;;;;20.76;100.00;101611.78;5225118;28;20206;-68
2023/06/22 06:56:51;;;;;;;21.15;18.73;;;;;;;20.74;100.00;101608.41;5231673;28;20116;-68
2023/06/22 06:59:23;;;;;;;19.80;17.70;;;;;;;20.79;100.00;101607.88;5228597;28;20029;-68
2023/06/22 07:01:54;;;;;;;20.17;18.02;;;;;;;20.85;100.00;101613.50;5225833;28;20033;-71
2023/06/22 07:04:26;;;;;;;20.67;18.48;;;;;;;20.88;100.00;101605.06;5226838;28;20025;-68
2023/06/22 07:07:01;;;;;;;20.25;18.08;;;;;;;20.98;100.00;101606.75;5229727;28;20041;-68
2023/06/22 07:09:32;;;;;;;21.95;18.75;;;;;;;21.08;100.00;101602.03;5227365;28;20017;-68
2023/06/22 07:12:04;;;;;;;22.80;18.27;;;;;;;21.11;100.00;101607.97;5231868;28;20037;-68
2023/06/22 07:14:36;;;;;;;21.13;18.83;;;;;;;21.16;100.00;101602.03;5226161;28;20025;-68
2023/06/22 07:17:07;;;;;;;21.15;18.88;;;;;;;21.14;100.00;101601.34;5217139;28;20506;-68
2023/06/22 07:19:38;;;;;;;20.67;18.52;;;;;;;21.20;100.00;101595.22;5226702;28;20423;-68
2023/06/22 07:22:10;;;;;;;20.40;18.30;;;;;;;21.18;100.00;101608.13;5226286;28;20069;-68
2023/06/22 07:24:41;;;;;;;20.40;18.40;;;;;;;21.21;100.00;101605.09;5230605;28;20494;-68
2023/06/22 07:27:13;;;;;;;20.88;18.77;;;;;;;21.25;100.00;101609.16;5228325;28;20107;-68
2023/06/22 07:29:45;;;;;;;21.38;19.15;;;;;;;21.20;100.00;101602.53;5227751;28;20479;-69
2023/06/22 07:32:16;;;;;;;22.10;19.73;;;;;;;21.17;100.00;101611.00;5230808;28;20083;-68
2023/06/22 07:34:48;;;;;;;24.38;20.77;;;;;;;21.21;100.00;101599.66;5231166;28;20037;-68
2023/06/22 07:37:19;;;;;;;23.95;21.42;;;;;;;21.18;100.00;101591.84;5230874;28;20052;-68
2023/06/22 07:39:53;;;;;;;24.05;21.55;;;;;;;21.10;100.00;101586.41;5230804;28;20033;-69
2023/06/22 07:42:26;;;;;;;22.77;20.58;;;;;;;21.06;100.00;101580.47;5226891;28;20033;-69
2023/06/22 07:44:57;;;;;;;24.98;22.20;;;;;;;21.04;100.00;101576.25;5228033;28;20025;-69
2023/06/22 07:47:28;;;;;;;26.48;22.35;;;;;;;21.04;100.00;101570.81;5231400;28;20036;-68
2023/06/22 07:50:01;;;;;;;26.67;23.83;;;;;;;21.04;100.00;101565.41;5229827;28;20059;-68
2023/06/22 07:52:32;;;;;;;27.42;24.50;;;;;;;20.99;100.00;101556.91;5228905;28;20029;-68
2023/06/22 07:55:04;;;;;;;25.35;22.40;;;;;;;20.95;100.00;101557.22;5230258;28;20079;-68
2023/06/22 07:57:36;;;;;;;26.23;23.52;;;;;;;20.97;100.00;101548.09;5230205;28;20037;-68
2023/06/22 08:00:12;;;;;;;25.80;23.15;;;;;;;20.91;100.00;101546.91;5228835;28;20051;-68
2023/06/22 08:02:45;;;;;;;25.98;23.27;;;;;;;20.99;100.00;101535.19;5228920;28;20112;-68
2023/06/22 08:05:17;;;;;;;25.85;23.25;;;;;;;21.03;100.00;101528.41;5229213;28;20115;-68
2023/06/22 08:07:49;;;;;;;26.27;23.45;;;;;;;21.04;100.00;101520.09;5230641;28;20033;-68
2023/06/22 08:10:21;;;;;;;25.42;22.83;;;;;;;21.09;100.00;101514.16;5227810;28;20047;-68
2023/06/22 08:12:52;;;;;;;25.92;23.20;;;;;;;21.13;100.00;101510.09;5231654;28;20029;-68
2023/06/22 08:15:26;;;;;;;26.55;24.02;;;;;;;21.21;100.00;101512.81;5227150;28;20028;-68
2023/06/22 08:17:58;;;;;;;;;;;;;;;21.39;100.00;101506.34;5228040;28;20041;-68
2023/06/22 08:20:30;;;;;;;26.95;23.08;;;;;;;21.25;100.00;101508.72;5228110;28;19920;-68
2023/06/22 08:23:06;;;;;;;26.55;22.20;;;;;;;21.25;100.00;101508.72;5227266;28;20100;-68
2023/06/22 08:25:37;;;;;;;24.58;21.98;;;;;;;21.31;100.00;101502.59;5229869;28;20055;-68
2023/06/22 08:28:09;;;;;;;27.42;22.55;;;;;;;21.31;100.00;101505.31;5228701;28;20036;-68
2023/06/22 08:30:41;;;;;;;24.75;22.02;;;;;;;21.34;100.00;101501.41;5229019;28;20397;-68
2023/06/22 08:33:12;;;;;;;24.20;21.70;;;;;;;21.35;100.00;101500.41;5224530;28;20029;-68
2023/06/22 08:35:44;;;;;;;25.58;21.65;;;;;;;21.41;100.00;101501.56;5226788;28;20079;-68
2023/06/22 08:38:18;;;;;;;24.35;21.60;;;;;;;21.46;100.00;101502.78;5230446;28;20116;-68
2023/06/22 08:40:50;;;;;;;24.00;21.50;;;;;;;21.50;100.00;101503.28;5227023;28;20542;-68
2023/06/22 08:43:21;;;;;;;22.73;20.42;;;;;;;21.44;100.00;101498.53;5232601;28;20048;-68
2023/06/22 08:45:52;;;;;;;22.50;20.15;;;;;;;21.50;100.00;101501.41;5228377;28;20413;-69
2023/06/22 08:48:24;;;;;;;21.88;19.70;;;;;;;21.54;100.00;101497.34;5230567;28;20079;-69
2023/06/22 08:50:55;;;;;;;23.10;20.48;;;;;;;21.62;100.00;101496.47;5231031;28;20555;-69
2023/06/22 08:53:27;;;;;;;22.80;20.02;;;;;;;21.62;100.00;101490.19;5223436;28;20033;-68
2023/06/22 08:55:58;;;;;;;22.90;19.45;;;;;;;21.70;100.00;101496.44;5214537;28;20025;-69
2023/06/22 08:58:29;;;;;;;21.10;18.15;;;;;;;21.76;100.00;101488.59;5232335;28;20030;-69
2023/06/22 09:01:01;;;;;;;19.73;17.65;;;;;;;21.72;100.00;101483.50;5226310;28;20149;-69
2023/06/22 09:03:36;;;;;;;18.45;16.52;;;;;;;21.73;100.00;101478.94;5227276;28;20714;-69
2023/06/22 09:06:09;;;;;;;19.58;16.58;;;;;;;21.77;100.00;101474.84;5226354;28;20096;-68
2023/06/22 09:08:40;;;;;;;18.60;16.03;;;;;;;21.78;100.00;101476.53;5227723;28;20426;-69
2023/06/22 09:11:11;;;;;;;18.55;16.65;;;;;;;21.81;100.00;101461.78;5224774;28;20378;-69
2023/06/22 09:13:43;;;;;;;17.75;15.88;;;;;;;21.82;100.00;101463.44;5228625;28;20029;-68
2023/06/22 09:16:14;;;;;;;18.92;15.73;;;;;;;21.84;100.00;101470.41;5226364;28;20036;-68
2023/06/22 09:18:49;;;;;;;16.52;14.90;;;;;;;21.86;100.00;101464.78;5227922;28;20045;-69
2023/06/22 09:21:20;;;;;;;21.17;15.85;;;;;;;21.89;100.00;101464.44;5224466;28;20045;-69
2023/06/22 09:23:51;;;;;;;17.10;14.75;;;;;;;21.94;100.00;101464.78;5229133;28;20026;-69
2023/06/22 09:26:23;;;;;;;15.40;13.77;;;;;;;21.97;100.00;101464.41;5231347;28;20025;-68
2023/06/22 09:28:55;;;;;;;16.23;14.55;;;;;;;22.01;100.00;101463.00;5231247;28;20033;-69
2023/06/22 09:31:26;;;;;;;16.08;13.93;;;;;;;22.08;100.00;101460.44;5223564;28;20030;-69
2023/06/22 09:33:57;;;;;;;15.43;13.82;;;;;;;22.11;100.00;101458.22;5228813;28;20025;-68
2023/06/22 09:36:29;;;;;;;15.05;13.50;;;;;;;22.16;100.00;101463.13;5230044;28;20030;-69
2023/06/22 09:39:05;;;;;;;16.33;13.18;;;;;;;22.20;100.00;101467.16;5230086;28;20580;-68
2023/06/22 09:41:37;;;;;;;15.63;13.57;;;;;;;22.20;100.00;101459.00;5228850;28;20033;-68
2023/06/22 09:44:08;;;;;;;15.82;13.68;;;;;;;22.28;100.00;101458.16;5234295;28;20118;-68
2023/06/22 09:46:40;;;;;;;14.82;13.20;;;;;;;22.32;100.00;101459.47;5232332;28;20435;-68
2023/06/22 09:49:11;;;;;;;15.10;13.07;;;;;;;22.39;100.00;101446.84;5223863;28;20060;-68
2023/06/22 09:51:43;;;;;;;15.13;13.32;;;;;;;22.36;100.00;101443.66;5230827;28;20033;-68
2023/06/22 09:54:14;;;;;;;15.98;12.68;;;;;;;22.47;100.00;101445.94;5230447;28;20033;-68
2023/06/22 09:56:45;;;;;;;14.82;12.85;;;;;;;22.45;100.00;101443.41;5226637;28;20448;-69
2023/06/22 09:59:17;;;;;;;13.85;12.35;;;;;;;22.49;100.00;101442.03;5228470;28;20042;-69
2023/06/22 10:01:48;;;;;;;14.25;12.13;;;;;;;22.52;100.00;101440.81;5224742;28;20736;-69
2023/06/22 10:04:19;;;;;;;16.08;12.63;;;;;;;22.52;100.00;101440.81;5228729;28;20052;-68
2023/06/22 10:06:51;;;;;;;14.40;12.57;;;;;;;22.54;100.00;101437.94;5225395;28;20384;-69
2023/06/22 10:09:22;;;;;;;13.95;12.45;;;;;;;22.60;100.00;101437.19;5233363;28;21684;-69
2023/06/22 10:11:54;;;;;;;13.65;11.43;;;;;;;22.58;100.00;101439.25;5230013;28;20092;-68
2023/06/22 10:14:27;;;;;;;13.23;11.60;;;;;;;22.60;100.00;101437.19;5225447;28;20034;-68
2023/06/22 10:16:58;;;;;;;13.93;11.07;;;;;;;22.63;100.00;101443.13;5225385;28;20025;-68
2023/06/22 10:19:29;;;;;;;13.90;12.07;;;;;;;22.60;100.00;101435.31;5229366;28;20032;-68
2023/06/22 10:22:01;;;;;;;15.30;11.48;;;;;;;22.59;100.00;101438.22;5227078;28;20030;-68
2023/06/22 10:24:32;;;;;;;14.00;12.60;;;;;;;22.66;100.00;101439.19;5234697;28;20031;-69
2023/06/22 10:27:04;;;;;;;16.05;12.80;;;;;;;22.64;100.00;101443.97;5228230;28;20684;-68
2023/06/22 10:29:35;;;;;;;13.90;11.82;;;;;;;22.64;100.00;101442.06;5226769;28;20033;-69
2023/06/22 10:32:07;;;;;;;15.77;12.23;;;;;;;22.62;100.00;101456.91;5229756;28;20128;-69
2023/06/22 10:34:39;;;;;;;14.73;13.18;;;;;;;22.65;100.00;101460.09;5231981;28;20034;-69
2023/06/22 10:37:10;;;;;;;17.42;12.75;;;;;;;22.61;100.00;101460.63;5227005;28;20063;-69
2023/06/22 10:39:41;;;;;;;14.95;13.27;;;;;;;22.49;100.00;101471.97;5229838;28;20029;-69
2023/06/22 10:42:13;;;;;;;15.25;12.85;;;;;;;22.37;100.00;101469.81;5225353;28;20072;-69
2023/06/22 10:44:44;;;;;;;15.20;13.63;;;;;;;22.29;100.00;101479.72;5223728;28;20060;-69
2023/06/22 10:47:16;;;;;;;14.82;13.23;;;;;;;22.27;100.00;101483.66;5227491;28;20033;-69
2023/06/22 10:49:47;;;;;;;16.27;14.57;;;;;;;22.15;100.00;101493.19;5228825;28;20428;-68
2023/06/22 10:52:19;;;;;;;17.42;15.60;;;;;;;22.12;100.00;101497.94;5226261;28;20407;-68
2023/06/22 10:54:50;;;;;;;18.00;15.73;;;;;;;22.08;100.00;101495.78;5230991;28;20399;-68
2023/06/22 10:57:22;;;;;;;19.90;17.67;;;;;;;21.90;100.00;101509.63;5228461;28;20021;-69
2023/06/22 10:59:53;;;;;;;20.77;18.77;;;;;;;21.91;100.00;101512.13;5232846;28;20060;-69
2023/06/22 11:02:25;;;;;;;22.33;20.02;;;;;;;21.85;100.00;101507.41;5231453;28;20026;-68
2023/06/22 11:05:00;;;;;;;21.70;19.52;;;;;;;21.63;100.00;101498.16;5224232;28;20056;-67
2023/06/22 11:07:32;;;;;;;23.58;21.08;;;;;;;21.58;100.00;101507.84;5227941;28;20021;-66
2023/06/22 11:10:04;;;;;;;26.30;23.60;;;;;;;21.49;100.00;101518.72;5228277;28;20041;-67
2023/06/22 11:12:36;;;;;;;26.75;24.08;;;;;;;21.43;100.00;101515.81;5229821;28;20045;-67
2023/06/22 11:15:08;;;;;;;26.42;23.83;;;;;;;21.30;100.00;101521.78;5232004;28;20503;-67
2023/06/22 11:17:39;;;;;;;25.77;23.27;;;;;;;21.21;100.00;101522.78;5233870;28;20033;-67
2023/06/22 11:20:11;;;;;;;24.00;21.58;;;;;;;21.07;100.00;101511.59;5227096;28;20443;-68
2023/06/22 11:22:43;;;;;;;26.63;23.27;;;;;;;20.98;100.00;101515.38;5227741;28;20467;-67
2023/06/22 11:25:14;;;;;;;24.35;22.00;;;;;;;20.86;100.00;101511.28;5229889;28;20107;-68
2023/06/22 11:27:46;;;;;;;30.50;27.50;;;;;;;20.81;100.00;101524.50;5227716;28;20036;-68